createdAt,value
2022-11-01T00:05:22.011Z,100377.15
2022-11-01T00:15:25.297Z,100370.55
2022-11-01T00:25:28.489Z,100364.94
2022-11-01T00:35:33.156Z,100354.83
2022-11-01T00:45:36.427Z,100346.08
2022-11-01T00:55:39.775Z,100335.06
2022-11-01T01:05:43.040Z,100329.75
2022-11-01T01:15:46.635Z,100326.19
2022-11-01T01:25:49.862Z,100326.35
2022-11-01T01:35:52.985Z,100322.34
2022-11-01T01:45:56.253Z,100320.51
2022-11-01T01:55:59.528Z,100319.29
2022-11-01T02:06:13.950Z,100315.34
2022-11-01T02:16:35.519Z,100299.14
2022-11-01T02:27:17.992Z,100296.86
2022-11-01T02:37:24.172Z,100293.11
2022-11-01T02:47:30.709Z,100278.08
2022-11-01T02:57:37.725Z,100265.93
2022-11-01T03:07:46.851Z,100253.68
2022-11-01T03:17:54.341Z,100248.66
2022-11-01T03:28:01.436Z,100251.90
2022-11-01T03:38:10.986Z,100255.56
2022-11-01T03:48:14.935Z,100262.33
2022-11-01T03:58:18.152Z,100270.49
2022-11-01T04:08:21.296Z,100267.05
2022-11-01T04:18:43.773Z,100257.13
2022-11-01T04:28:57.424Z,100255.58
2022-11-01T04:39:01.071Z,100249.88
2022-11-01T04:49:04.313Z,100244.96
2022-11-01T04:59:07.605Z,100241.69
2022-11-01T05:09:10.782Z,100228.92
2022-11-01T05:19:13.949Z,100223.87
2022-11-01T05:29:31.247Z,100221.77
2022-11-01T05:39:35.585Z,100216.42
2022-11-01T05:49:38.857Z,100215.56
2022-11-01T05:59:42.092Z,100215.33
2022-11-01T06:09:45.270Z,100218.48
2022-11-01T06:19:48.458Z,100220.84
2022-11-01T06:29:51.627Z,100219.70
2022-11-01T06:39:54.869Z,100221.08
2022-11-01T06:49:58.117Z,100215.27
2022-11-01T07:00:01.269Z,100209.12
2022-11-01T07:10:05.806Z,100207.17
2022-11-01T07:20:10.180Z,100205.29
2022-11-01T07:30:13.683Z,100208.67
2022-11-01T07:40:18.082Z,100209.41
2022-11-01T07:50:21.384Z,100200.63
2022-11-01T08:00:24.781Z,100196.27
2022-11-01T08:10:29.221Z,100186.91
2022-11-01T08:20:32.648Z,100178.64
2022-11-01T08:30:38.041Z,100180.27
2022-11-01T08:40:41.263Z,100174.55
2022-11-01T08:50:44.703Z,100176.90
2022-11-01T09:00:47.995Z,100175.71
2022-11-01T09:10:51.287Z,100156.77
2022-11-01T09:20:57.710Z,100152.55
2022-11-01T09:31:19.969Z,100142.32
2022-11-01T09:41:34.759Z,100125.48
2022-11-01T09:51:39.134Z,100114.79
2022-11-01T10:01:51.708Z,100122.52
2022-11-01T10:12:13.844Z,100108.52
2022-11-01T10:22:19.681Z,100074.25
2022-11-01T10:32:47.223Z,100096.70
2022-11-01T10:42:50.566Z,100103.59
2022-11-01T10:53:02.223Z,100128.14
2022-11-01T11:03:24.161Z,100106.98
2022-11-01T11:13:28.257Z,100065.49
2022-11-01T11:23:34.851Z,100047.02
2022-11-01T11:33:38.197Z,100055.13
2022-11-01T11:43:46.252Z,100071.06
2022-11-01T11:54:18.902Z,100069.23
2022-11-01T12:04:23.989Z,100074.73
2022-11-01T12:14:27.985Z,100100.09
2022-11-01T12:24:39.487Z,100119.85
2022-11-01T12:34:46.572Z,100120.00
2022-11-01T12:44:57.047Z,100115.92
2022-11-01T12:55:36.387Z,100090.87
2022-11-01T13:06:20.100Z,100088.67
2022-11-01T13:16:36.969Z,100087.45
2022-11-01T13:27:07.329Z,100089.37
2022-11-01T13:37:22.742Z,100098.39
2022-11-01T13:57:55.499Z,100078.20
2022-11-01T14:08:05.213Z,100077.98
2022-11-01T14:18:10.483Z,100079.63
2022-11-01T14:28:16.724Z,100087.84
2022-11-01T14:38:32.657Z,100099.05
2022-11-01T14:48:48.110Z,100099.37
2022-11-01T14:58:51.860Z,100099.96
2022-11-01T15:09:05.751Z,100101.52
2022-11-01T15:19:18.640Z,100097.73
2022-11-01T15:29:30.985Z,100089.64
2022-11-01T15:39:38.267Z,100076.77
2022-11-01T15:49:59.926Z,100091.79
2022-11-01T16:00:23.457Z,100075.27
2022-11-01T16:10:32.683Z,100080.70
2022-11-01T16:20:41.157Z,100077.60
2022-11-01T16:30:49.351Z,100064.35
2022-11-01T16:40:58.478Z,100062.52
2022-11-01T16:51:03.778Z,100062.05
2022-11-01T17:01:19.258Z,100064.81
2022-11-01T17:11:23.650Z,100071.30
2022-11-01T17:21:31.169Z,100074.03
2022-11-01T17:31:34.572Z,100073.39
2022-11-01T17:41:38.340Z,100075.52
2022-11-01T17:51:42.650Z,100068.19
2022-11-01T18:01:46.002Z,100044.77
2022-11-01T18:12:07.869Z,100039.30
2022-11-01T18:22:26.378Z,100071.98
2022-11-01T18:32:38.576Z,100069.74
2022-11-01T18:42:42.435Z,100069.87
2022-11-01T18:52:45.755Z,100064.02
2022-11-01T19:02:49.609Z,100075.70
2022-11-01T19:12:56.577Z,100082.02
2022-11-01T19:23:02.941Z,100087.72
2022-11-01T19:33:22.985Z,100077.16
2022-11-01T19:43:28.088Z,100079.77
2022-11-01T19:53:34.620Z,100091.52
2022-11-01T20:04:30.328Z,100103.56
2022-11-01T20:14:35.688Z,100102.55
2022-11-01T20:24:39.106Z,100092.60
2022-11-01T20:34:43.272Z,100089.05
2022-11-01T20:44:47.921Z,100089.46
2022-11-01T20:54:52.817Z,100086.85
2022-11-01T21:05:03.028Z,100082.05
2022-11-01T21:15:39.364Z,100079.42
2022-11-01T21:25:46.090Z,100072.75
2022-11-01T21:35:51.944Z,100080.83
2022-11-01T21:45:55.321Z,100072.54
2022-11-01T21:55:58.504Z,100073.13
2022-11-01T22:06:03.164Z,100071.17
2022-11-01T22:16:08.605Z,100067.94
2022-11-01T22:26:12.597Z,100062.09
2022-11-01T22:36:30.285Z,100056.06
2022-11-01T22:46:45.484Z,100056.69
2022-11-01T22:57:10.786Z,100058.38
2022-11-01T23:07:32.618Z,100065.64
2022-11-01T23:17:37.357Z,100071.29
2022-11-01T23:27:43.227Z,100075.59
2022-11-01T23:37:48.159Z,100066.02
2022-11-01T23:47:51.335Z,100048.04
2022-11-01T23:57:56.796Z,100044.40
